< < Back
Terminal Aerodrome Forecast


Current Version              Previous Versions:   1  2  3  4  5  6  7  8  9  

Terminal Aerodrome Forecast

625
FTUS42 KTAE 032320
TAFTLH
TAF
KTLH 032320Z 0400/0424 22003KT P6SM SCT040
      TEMPO 0400/0401 19010KT BKN040
     FM041500 23006KT P6SM SCT040
     FM042100 19010KT P6SM TS BKN040CB=

Latest METAR

681
SAUS80 KWBC 040100
MTRTLH
METAR KTLH 040053Z 21003KT 10SM FEW046 SCT100 SCT250 28/23 A2989 RMK AO2
SLP121 T02830228


USA.gov is the U.S. government's official web portal to all federal, state and local government web resources and services.